Time;durP1;ratioP1;P1;durP2;ratioP2;P2;SDS_P1;SDS_P2;PMS_P1;PMS_P2;Temp;Humidity;BMP_temperature;BMP_pressure;BME280_temperature;BME280_humidity;BME280_pressure;Samples;Min_cycle;Max_cycle;Signal;HPM_P1;HPM_P2
2023/08/09 00:00:31;;;;;;;5.50;3.03;;;;;;;19.10;72.65;98878.94;5082074;28;20082;-80
2023/08/09 00:03:15;;;;;;;5.45;3.40;;;;;;;19.50;72.12;98877.59;5082096;28;20578;-81
2023/08/09 00:05:59;;;;;;;4.57;2.90;;;;;;;19.54;72.02;98889.31;5081261;28;20055;-81
2023/08/09 00:08:44;;;;;;;9.48;3.05;;;;;;;19.37;72.47;98891.34;5080787;28;20075;-80
2023/08/09 00:11:28;;;;;;;5.72;3.72;;;;;;;19.62;72.01;98881.91;5080670;28;20093;-80
2023/08/09 00:14:12;;;;;;;6.53;3.40;;;;;;;19.60;72.50;98884.84;5084329;28;20508;-81
2023/08/09 00:16:57;;;;;;;6.63;2.90;;;;;;;19.58;73.00;98872.81;5075695;28;20047;-80
2023/08/09 00:19:41;;;;;;;9.35;3.20;;;;;;;19.77;72.49;98876.66;5079782;28;20177;-80
2023/08/09 00:22:26;;;;;;;6.35;3.10;;;;;;;19.65;72.80;98878.72;5078081;28;20050;-80
2023/08/09 00:25:10;;;;;;;5.65;3.25;;;;;;;19.98;72.14;98895.41;5077856;28;20044;-81
2023/08/09 00:27:54;;;;;;;5.93;2.92;;;;;;;19.74;72.43;98895.81;5080604;28;20055;-80
2023/08/09 00:30:39;;;;;;;8.15;3.40;;;;;;;19.77;72.51;98889.19;5078148;28;20211;-80
2023/08/09 00:33:22;;;;;;;7.75;3.65;;;;;;;19.66;72.64;98893.66;5081309;28;20562;-80
2023/08/09 00:36:06;;;;;;;6.65;3.33;;;;;;;19.50;72.62;98888.25;5083040;28;20509;-80
2023/08/09 00:38:50;;;;;;;7.05;3.40;;;;;;;19.55;72.36;98901.56;5077325;28;20661;-80
2023/08/09 00:41:34;;;;;;;7.82;3.08;;;;;;;19.40;73.00;98901.47;5079787;28;20058;-81
2023/08/09 00:44:18;;;;;;;8.05;3.10;;;;;;;19.51;72.65;98903.16;5075893;28;20501;-80
2023/08/09 00:47:03;;;;;;;6.63;3.25;;;;;;;19.43;72.90;98898.28;5083457;28;20437;-81
2023/08/09 00:49:48;;;;;;;4.18;2.88;;;;;;;19.15;73.52;98915.38;5082396;28;20047;-81
2023/08/09 00:52:32;;;;;;;7.95;3.13;;;;;;;19.32;73.72;98917.94;5081816;28;20051;-80
2023/08/09 00:55:16;;;;;;;4.68;3.22;;;;;;;19.30;73.71;98917.38;5078891;28;20086;-82
2023/08/09 00:58:01;;;;;;;6.20;3.20;;;;;;;19.37;73.27;98933.91;5082914;28;20165;-82
2023/08/09 01:00:45;;;;;;;7.03;3.30;;;;;;;19.34;73.45;98931.78;5075549;28;20097;-82
2023/08/09 01:03:29;;;;;;;7.00;3.63;;;;;;;19.54;72.90;98912.47;5078163;28;20110;-80
2023/08/09 01:06:46;;;;;;;5.40;3.05;;;;;;;19.29;73.54;98919.22;5078579;28;20047;-82
2023/08/09 01:09:39;;;;;;;7.63;3.47;;;;;;;19.32;73.84;98921.38;5075367;28;20075;-83
2023/08/09 01:12:28;;;;;;;3.13;2.37;;;;;;;18.87;75.12;98923.41;5082023;28;20074;-82
2023/08/09 01:15:16;;;;;;;5.65;3.00;;;;;;;19.15;74.42;98921.53;5074930;28;20325;-82
2023/08/09 01:18:02;;;;;;;5.35;3.13;;;;;;;19.30;73.79;98918.16;5078967;28;20083;-83
2023/08/09 01:20:49;;;;;;;5.60;3.28;;;;;;;19.13;73.71;98907.66;5076873;28;20071;-83
2023/08/09 01:23:38;;;;;;;5.90;2.90;;;;;;;19.40;73.66;98922.75;5077640;28;20481;-83
2023/08/09 01:26:22;;;;;;;8.18;3.53;;;;;;;19.27;73.73;98930.13;5083697;28;20127;-83
2023/08/09 01:29:06;;;;;;;7.13;3.28;;;;;;;18.81;74.61;98921.72;5080293;28;20055;-82
2023/08/09 01:31:51;;;;;;;8.00;3.55;;;;;;;19.18;74.28;98910.38;5080159;28;20032;-80
2023/08/09 01:34:36;;;;;;;5.07;3.38;;;;;;;19.00;74.60;98908.91;5077219;28;20039;-83
2023/08/09 01:37:34;;;;;;;8.48;3.28;;;;;;;19.30;73.44;98917.38;5076692;28;20043;-79
2023/08/09 01:40:20;;;;;;;6.53;3.15;;;;;;;19.29;73.60;98921.09;5080118;28;20074;-81
2023/08/09 01:43:04;;;;;;;5.00;3.65;;;;;;;19.01;74.23;98930.97;5078777;28;20039;-82
2023/08/09 01:45:48;;;;;;;6.40;3.33;;;;;;;19.42;73.06;98931.28;5079718;28;20113;-81
2023/08/09 01:48:33;;;;;;;6.07;3.30;;;;;;;19.58;72.63;98923.41;5076866;28;20122;-82
2023/08/09 01:51:17;;;;;;;9.32;3.67;;;;;;;19.01;73.76;98928.31;5078355;28;20117;-81
2023/08/09 01:54:01;;;;;;;9.02;3.35;;;;;;;19.41;72.91;98925.19;5075253;28;20075;-81
2023/08/09 01:56:45;;;;;;;5.97;3.67;;;;;;;19.33;73.11;98916.88;5076179;28;20042;-80
2023/08/09 01:59:29;;;;;;;6.63;3.72;;;;;;;18.82;74.35;98910.84;5074077;28;20048;-81
2023/08/09 02:02:13;;;;;;;8.15;3.47;;;;;;;19.02;73.83;98916.63;5076631;28;20089;-80
2023/08/09 02:04:57;;;;;;;6.53;3.50;;;;;;;19.56;72.23;98918.34;5078508;28;20094;-81
2023/08/09 02:07:42;;;;;;;7.45;3.83;;;;;;;19.26;72.83;98928.53;5076675;28;20055;-81
2023/08/09 02:10:25;;;;;;;7.32;3.03;;;;;;;19.40;72.31;98922.75;5077258;28;20063;-81
2023/08/09 02:13:09;;;;;;;3.90;3.17;;;;;;;19.59;71.48;98925.00;5080155;28;20055;-81
2023/08/09 02:15:53;;;;;;;6.90;3.03;;;;;;;19.62;71.37;98925.31;5080150;28;20047;-81
2023/08/09 02:18:37;;;;;;;4.97;3.08;;;;;;;19.40;71.20;98936.06;5078066;28;20047;-82
2023/08/09 02:21:21;;;;;;;3.35;2.88;;;;;;;19.42;71.04;98936.63;5083430;28;20093;-81
2023/08/09 02:24:06;;;;;;;6.93;3.40;;;;;;;19.36;71.09;98927.81;5074179;28;20063;-81
2023/08/09 02:26:50;;;;;;;6.18;3.03;;;;;;;19.11;71.41;98931.06;5074527;28;20303;-81
2023/08/09 02:29:34;;;;;;;4.28;2.90;;;;;;;19.37;70.82;98925.94;5072173;28;20097;-82
2023/08/09 02:32:18;;;;;;;6.95;3.17;;;;;;;19.03;71.25;98935.00;5075644;28;20055;-81
2023/08/09 02:35:03;;;;;;;5.50;3.20;;;;;;;19.12;70.84;98932.66;5075625;28;20067;-81
2023/08/09 02:37:49;;;;;;;5.32;2.78;;;;;;;19.35;70.34;98941.38;5078927;28;20043;-82
2023/08/09 02:40:34;;;;;;;3.63;2.85;;;;;;;19.54;69.24;98939.91;5075909;28;20044;-82
2023/08/09 02:43:19;;;;;;;4.78;2.58;;;;;;;19.30;70.00;98941.31;5080017;28;20589;-81
2023/08/09 02:46:06;;;;;;;6.50;2.78;;;;;;;19.32;69.45;98947.97;5080958;28;20047;-82
2023/08/09 02:48:51;;;;;;;5.65;2.83;;;;;;;19.54;69.84;98960.38;5075004;28;20529;-82
2023/08/09 02:51:35;;;;;;;8.50;3.53;;;;;;;19.21;70.28;98955.09;5080820;28;20127;-82
2023/08/09 02:54:19;;;;;;;5.00;2.90;;;;;;;19.47;69.96;98939.31;5079252;28;20085;-81
2023/08/09 02:57:03;;;;;;;4.78;2.70;;;;;;;19.82;68.97;98940.59;5080761;28;20077;-81
2023/08/09 02:59:47;;;;;;;4.47;2.67;;;;;;;19.64;69.66;98933.84;5077715;28;20070;-81
2023/08/09 03:02:31;;;;;;;6.90;3.00;;;;;;;19.75;69.50;98932.03;5074711;28;20548;-81
2023/08/09 03:05:16;;;;;;;3.13;2.45;;;;;;;19.94;69.38;98948.41;5078660;28;20093;-80
2023/08/09 03:08:00;;;;;;;3.38;2.55;;;;;;;19.79;69.33;98951.75;5085260;28;20448;-81
2023/08/09 03:10:44;;;;;;;5.45;3.10;;;;;;;19.98;69.91;98948.69;5081567;28;20038;-80
2023/08/09 03:13:28;;;;;;;7.85;2.75;;;;;;;19.75;70.29;98960.50;5077447;28;20133;-80
2023/08/09 03:16:12;;;;;;;5.43;2.65;;;;;;;20.00;69.78;98951.13;5079271;28;20447;-81
2023/08/09 03:18:56;;;;;;;3.72;2.63;;;;;;;20.08;69.98;98954.09;5081060;28;20047;-81
2023/08/09 03:21:40;;;;;;;5.18;2.92;;;;;;;19.70;70.87;98964.75;5081646;28;20850;-81
2023/08/09 03:24:24;;;;;;;3.33;2.67;;;;;;;19.45;71.84;98967.25;5079610;28;20097;-83
2023/08/09 03:27:09;;;;;;;4.30;2.92;;;;;;;19.77;71.34;98963.75;5087668;28;20096;-82
2023/08/09 03:29:53;;;;;;;4.43;2.72;;;;;;;19.34;72.31;98974.34;5080644;28;20414;-81
2023/08/09 03:32:37;;;;;;;6.82;2.88;;;;;;;19.67;71.63;98977.81;5081302;28;20136;-82
2023/08/09 03:35:21;;;;;;;4.10;2.72;;;;;;;19.70;71.76;98964.75;5077271;28;20059;-82
2023/08/09 03:38:05;;;;;;;7.47;2.67;;;;;;;19.70;72.03;98958.66;5079759;28;20513;-80
2023/08/09 03:40:49;;;;;;;5.40;2.70;;;;;;;19.63;72.11;98964.19;5077978;28;20047;-82
2023/08/09 03:43:35;;;;;;;6.72;2.60;;;;;;;19.61;72.05;98954.84;5081773;28;20081;-81
2023/08/09 03:46:19;;;;;;;4.50;2.45;;;;;;;19.33;73.21;98946.13;5084716;28;20094;-81
2023/08/09 03:49:04;;;;;;;4.82;3.17;;;;;;;19.72;72.14;98945.88;5077983;28;20501;-81
2023/08/09 03:51:48;;;;;;;5.97;2.90;;;;;;;19.57;72.19;98948.44;5083639;28;20079;-80
2023/08/09 03:54:33;;;;;;;4.18;2.60;;;;;;;19.63;72.69;98958.03;5084919;28;20453;-81
2023/08/09 03:57:17;;;;;;;4.90;2.40;;;;;;;19.47;73.13;98952.63;5079055;28;20088;-82
2023/08/09 04:00:02;;;;;;;4.70;2.60;;;;;;;19.52;73.01;98950.00;5083158;28;20378;-83
2023/08/09 04:02:47;;;;;;;5.07;2.90;;;;;;;19.65;72.93;98955.94;5077845;28;20051;-83
2023/08/09 04:05:31;;;;;;;2.75;2.17;;;;;;;19.78;72.36;98958.16;5083980;28;20038;-82
2023/08/09 04:08:15;;;;;;;5.00;2.50;;;;;;;19.17;73.72;98963.84;5079933;28;20055;-82
2023/08/09 04:11:04;;;;;;;3.00;2.70;;;;;;;19.32;73.59;98963.16;5082699;28;20460;-82
2023/08/09 04:13:48;;;;;;;6.20;2.97;;;;;;;19.13;74.21;98956.34;5081260;28;20093;-82
2023/08/09 04:16:32;;;;;;;5.05;2.78;;;;;;;19.07;74.33;98972.53;5080907;28;20054;-83
2023/08/09 04:19:16;;;;;;;6.13;2.65;;;;;;;18.92;75.20;98984.59;5084913;28;20074;-82
2023/08/09 04:22:00;;;;;;;6.30;3.05;;;;;;;18.70;76.01;98972.16;5078599;28;20058;-82
2023/08/09 04:24:44;;;;;;;6.55;3.17;;;;;;;18.94;75.86;98974.50;5081108;28;20075;-82
2023/08/09 04:27:28;;;;;;;7.97;4.43;;;;;;;18.84;76.02;98985.84;5081677;28;20098;-81
2023/08/09 04:30:13;;;;;;;7.57;4.13;;;;;;;18.70;76.70;98995.25;5079578;28;20044;-81
2023/08/09 04:33:00;;;;;;;5.85;3.70;;;;;;;19.02;76.37;98988.44;5080840;28;20040;-81
2023/08/09 04:35:44;;;;;;;6.25;3.75;;;;;;;18.90;76.54;98984.06;5080574;28;20051;-80
2023/08/09 04:38:28;;;;;;;10.07;4.15;;;;;;;18.69;77.21;98977.72;5084459;28;20035;-80
2023/08/09 04:41:12;;;;;;;8.90;3.65;;;;;;;18.73;76.84;98970.84;5080892;28;20079;-80
2023/08/09 04:43:57;;;;;;;6.72;4.28;;;;;;;18.46;78.14;98978.78;5085711;28;20491;-81
2023/08/09 04:46:41;;;;;;;5.72;4.53;;;;;;;18.74;78.12;98969.00;5075823;28;20503;-81
2023/08/09 04:49:26;;;;;;;5.53;4.00;;;;;;;19.10;77.66;98958.72;5081578;28;20097;-81
2023/08/09 04:52:10;;;;;;;6.65;4.78;;;;;;;18.83;77.87;98970.94;5078760;28;20047;-81
2023/08/09 04:54:54;;;;;;;7.00;4.20;;;;;;;18.95;78.11;98973.47;5081292;28;20040;-81
2023/08/09 04:57:38;;;;;;;9.15;4.38;;;;;;;19.07;77.60;98986.63;5080392;28;20035;-82
2023/08/09 05:00:23;;;;;;;8.32;4.10;;;;;;;18.88;78.48;98975.53;5081482;28;20046;-81
2023/08/09 05:03:06;;;;;;;5.45;3.95;;;;;;;18.88;78.29;98978.19;5082494;28;20035;-82
2023/08/09 05:05:51;;;;;;;5.65;3.83;;;;;;;19.09;77.79;98973.09;5080297;28;20063;-82
2023/08/09 05:08:35;;;;;;;7.28;3.97;;;;;;;18.95;78.07;98980.63;5079810;28;20083;-81
2023/08/09 05:11:19;;;;;;;7.40;4.47;;;;;;;19.42;76.86;98968.56;5081239;28;20096;-81
2023/08/09 05:14:03;;;;;;;7.38;4.25;;;;;;;18.97;78.40;98992.63;5080197;28;20043;-81
2023/08/09 05:16:47;;;;;;;6.35;4.13;;;;;;;19.10;78.06;98990.66;5080451;28;20150;-81
2023/08/09 05:19:30;;;;;;;9.10;4.28;;;;;;;19.16;77.90;98989.63;5078623;28;20051;-81
2023/08/09 05:22:14;;;;;;;6.15;4.38;;;;;;;19.22;77.63;98985.97;5073148;28;20532;-82
2023/08/09 05:24:59;;;;;;;7.55;4.03;;;;;;;19.24;77.49;98977.72;5076180;28;20514;-81
2023/08/09 05:27:47;;;;;;;6.38;4.18;;;;;;;18.92;77.80;98986.44;5073678;28;20043;-82
2023/08/09 05:30:31;;;;;;;5.82;3.70;;;;;;;19.62;76.01;98977.75;5079070;28;20043;-81
2023/08/09 05:33:15;;;;;;;6.15;3.65;;;;;;;19.21;76.45;98984.34;5081650;28;20105;-81
2023/08/09 05:35:59;;;;;;;5.47;3.58;;;;;;;19.63;74.99;98987.34;5076760;28;21375;-81
2023/08/09 05:38:43;;;;;;;5.85;2.83;;;;;;;19.52;74.53;98984.63;5082036;28;20104;-81
2023/08/09 05:41:27;;;;;;;3.13;2.83;;;;;;;19.59;73.57;98983.59;5077329;28;20048;-81
2023/08/09 05:44:11;;;;;;;4.38;2.90;;;;;;;19.54;72.49;98987.81;5085045;28;20424;-82
2023/08/09 05:46:55;;;;;;;2.88;2.45;;;;;;;19.74;71.98;99002.34;5078890;28;20438;-82
2023/08/09 05:49:39;;;;;;;5.60;3.00;;;;;;;20.13;70.88;99003.91;5074333;28;20058;-81
2023/08/09 05:52:23;;;;;;;3.17;2.83;;;;;;;20.10;70.78;99015.09;5077501;28;20039;-81
2023/08/09 05:55:08;;;;;;;3.63;3.00;;;;;;;20.14;71.20;99007.41;5081541;28;20066;-81
2023/08/09 05:57:52;;;;;;;5.97;3.70;;;;;;;20.25;71.57;99001.06;5075260;28;20044;-82
2023/08/09 06:00:37;;;;;;;6.97;3.80;;;;;;;20.14;71.93;98996.72;5073000;28;20116;-81
2023/08/09 06:03:21;;;;;;;8.70;3.45;;;;;;;20.03;72.38;98996.66;5079034;28;20043;-81
2023/08/09 06:06:12;;;;;;;7.72;3.38;;;;;;;19.90;72.42;98995.22;5079176;28;20040;-80
2023/08/09 06:08:57;;;;;;;3.83;2.80;;;;;;;20.26;71.32;98992.00;5072728;28;20056;-80
2023/08/09 06:11:41;;;;;;;3.83;2.67;;;;;;;20.26;70.25;99005.34;5078483;28;20050;-81
2023/08/09 06:14:25;;;;;;;6.85;2.85;;;;;;;20.43;70.32;99007.78;5078180;28;20035;-80
2023/08/09 06:17:09;;;;;;;2.55;2.35;;;;;;;20.41;69.33;99021.38;5076577;28;20055;-81
2023/08/09 06:19:53;;;;;;;3.53;2.80;;;;;;;20.40;70.04;99016.31;5077814;28;20046;-80
2023/08/09 06:22:37;;;;;;;5.75;2.50;;;;;;;20.20;70.48;99009.84;5078980;28;20056;-82
2023/08/09 06:25:21;;;;;;;3.55;2.50;;;;;;;20.46;69.39;99011.81;5077476;28;20096;-84
2023/08/09 06:28:05;;;;;;;3.42;2.47;;;;;;;20.12;70.17;99028.97;5078732;28;20074;-84
2023/08/09 06:30:49;;;;;;;2.88;2.55;;;;;;;20.40;70.30;99003.00;5077301;28;20055;-83
2023/08/09 06:33:40;;;;;;;3.25;2.40;;;;;;;20.49;70.17;99011.28;5081772;28;20059;-84
2023/08/09 06:36:25;;;;;;;4.22;2.72;;;;;;;20.26;71.08;99011.44;5075644;28;20052;-83
2023/08/09 06:39:09;;;;;;;3.45;2.70;;;;;;;20.37;71.22;99009.63;5080561;28;20067;-84
2023/08/09 06:41:56;;;;;;;3.80;2.95;;;;;;;20.24;71.95;99020.75;5080180;28;20074;-83
2023/08/09 06:44:40;;;;;;;3.90;2.65;;;;;;;20.56;71.52;99027.84;5082861;28;20031;-84
2023/08/09 06:47:27;;;;;;;6.25;3.70;;;;;;;20.80;72.04;99032.75;5079518;28;20085;-84
2023/08/09 06:50:11;;;;;;;5.78;3.58;;;;;;;21.14;71.44;99023.50;5078604;28;20189;-83
2023/08/09 06:52:55;;;;;;;6.50;3.75;;;;;;;20.89;71.87;99023.19;5083017;28;20096;-81
2023/08/09 06:55:39;;;;;;;5.90;3.80;;;;;;;20.92;71.96;99027.16;5090246;28;20082;-82
2023/08/09 06:58:24;;;;;;;4.68;3.75;;;;;;;20.97;72.56;99033.31;5078622;28;20059;-83
2023/08/09 07:01:09;;;;;;;5.18;3.95;;;;;;;20.97;72.50;99022.66;5084423;28;20059;-83
2023/08/09 07:03:53;;;;;;;8.60;4.07;;;;;;;21.13;71.99;99025.34;5082730;28;20497;-83
2023/08/09 07:06:37;;;;;;;4.40;3.85;;;;;;;21.54;71.49;99025.38;5087114;28;20039;-84
2023/08/09 07:09:22;;;;;;;5.18;4.05;;;;;;;21.33;72.00;99045.13;5082275;28;20060;-83
2023/08/09 07:12:07;;;;;;;5.47;4.03;;;;;;;21.26;73.01;99043.53;5075789;28;20101;-84
2023/08/09 07:14:51;;;;;;;4.88;4.20;;;;;;;20.97;73.61;99049.34;5080046;28;20175;-85
2023/08/09 07:17:36;;;;;;;6.00;4.72;;;;;;;21.48;72.49;99039.81;5080769;28;20039;-84
2023/08/09 07:20:20;;;;;;;8.32;4.78;;;;;;;21.66;72.16;99038.47;5073593;28;20115;-85
2023/08/09 07:23:04;;;;;;;7.03;5.00;;;;;;;22.30;71.35;99046.13;5077146;28;20135;-81
2023/08/09 07:25:48;;;;;;;9.30;5.72;;;;;;;22.37;71.40;99046.63;5082011;28;20139;-80
2023/08/09 07:28:32;;;;;;;9.52;5.30;;;;;;;22.05;71.43;99074.53;5080764;28;20046;-79
2023/08/09 07:31:21;;;;;;;5.85;5.25;;;;;;;21.79;72.27;99063.84;5079751;28;20082;-80
2023/08/09 07:34:05;;;;;;;6.45;5.28;;;;;;;22.42;70.84;99071.78;5074283;28;20040;-80
2023/08/09 07:36:49;;;;;;;5.95;4.93;;;;;;;21.97;71.25;99085.75;5077073;28;20047;-83
2023/08/09 07:39:34;;;;;;;8.35;5.35;;;;;;;22.47;70.81;99082.47;5082066;28;20038;-80
2023/08/09 07:42:19;;;;;;;7.85;5.15;;;;;;;22.32;70.57;99088.66;5083359;28;20098;-79
2023/08/09 07:45:04;;;;;;;6.78;5.40;;;;;;;22.57;70.46;99085.09;5083779;28;20067;-81
2023/08/09 07:47:48;;;;;;;11.30;4.75;;;;;;;22.85;70.01;99087.41;5082036;28;20050;-82
2023/08/09 07:50:32;;;;;;;8.43;4.80;;;;;;;22.75;70.28;99098.94;5077120;28;20044;-82
2023/08/09 07:53:17;;;;;;;5.97;4.47;;;;;;;22.68;69.76;99104.59;5082499;28;20116;-82
2023/08/09 07:56:00;;;;;;;6.55;4.50;;;;;;;22.91;69.20;99097.81;5077869;28;20097;-82
2023/08/09 07:58:45;;;;;;;6.07;4.57;;;;;;;23.36;68.43;99105.09;5084615;28;20108;-82
2023/08/09 08:01:29;;;;;;;4.85;3.67;;;;;;;22.94;67.49;99101.84;5081248;28;20047;-82
2023/08/09 08:04:14;;;;;;;5.10;4.00;;;;;;;22.95;68.40;99104.22;5080221;28;20035;-84
2023/08/09 08:06:58;;;;;;;6.03;3.63;;;;;;;23.22;67.79;99111.06;5075614;28;20048;-83
2023/08/09 08:09:42;;;;;;;7.25;4.18;;;;;;;23.40;68.04;99114.19;5079179;28;20434;-83
2023/08/09 08:12:28;;;;;;;5.68;3.75;;;;;;;23.60;68.14;99107.88;5078295;28;20040;-81
2023/08/09 08:15:12;;;;;;;4.40;3.70;;;;;;;23.27;68.33;99118.25;5079422;28;20090;-82
2023/08/09 08:17:56;;;;;;;5.85;3.83;;;;;;;23.68;67.23;99120.69;5078624;28;20125;-84
2023/08/09 08:20:41;;;;;;;5.00;4.05;;;;;;;23.70;67.49;99123.06;5080822;28;20292;-83
2023/08/09 08:23:25;;;;;;;6.20;4.07;;;;;;;23.93;67.25;99121.56;5080756;28;20052;-83
2023/08/09 08:26:09;;;;;;;5.07;3.53;;;;;;;23.93;67.16;99136.81;5081615;28;20076;-85
2023/08/09 08:28:53;;;;;;;7.38;3.63;;;;;;;23.98;67.49;99138.66;5076567;28;20082;-84
2023/08/09 08:31:37;;;;;;;6.03;3.28;;;;;;;24.00;67.50;99141.88;5079465;28;20116;-85
2023/08/09 08:34:21;;;;;;;5.72;3.22;;;;;;;23.82;68.22;99147.66;5080219;28;20558;-84
2023/08/09 08:37:06;;;;;;;5.45;3.05;;;;;;;23.64;68.13;99151.78;5083152;28;20232;-84
2023/08/09 08:39:51;;;;;;;4.50;2.90;;;;;;;23.93;67.90;99169.81;5084521;28;20074;-84
2023/08/09 08:42:45;;;;;;;3.25;2.92;;;;;;;24.73;67.04;99164.25;5081343;28;20101;-84
2023/08/09 08:45:31;;;;;;;3.00;2.70;;;;;;;24.47;67.03;99171.78;5081059;28;20097;-83
2023/08/09 08:48:17;;;;;;;4.18;3.58;;;;;;;24.61;66.45;99169.22;5082231;28;20059;-83
2023/08/09 08:51:04;;;;;;;4.03;3.63;;;;;;;24.40;67.16;99166.72;5078490;28;20129;-83
2023/08/09 08:53:48;;;;;;;5.07;3.63;;;;;;;24.14;67.35;99174.22;5079326;28;20038;-83
2023/08/09 08:56:33;;;;;;;5.22;4.72;;;;;;;23.79;67.66;99171.50;5080975;28;20173;-83
2023/08/09 08:59:17;;;;;;;5.40;4.60;;;;;;;23.90;68.28;99174.91;5082090;28;20031;-81
2023/08/09 09:02:02;;;;;;;5.18;4.65;;;;;;;23.75;68.14;99171.25;5079819;28;20127;-82
2023/08/09 09:04:46;;;;;;;4.97;4.18;;;;;;;24.48;67.16;99162.63;5074044;28;20040;-82
2023/08/09 09:07:30;;;;;;;5.05;4.15;;;;;;;23.97;67.80;99170.03;5076744;28;20114;-83
2023/08/09 09:10:14;;;;;;;5.97;4.65;;;;;;;24.40;67.60;99185.50;5078728;28;20042;-83
2023/08/09 09:12:58;;;;;;;5.85;4.93;;;;;;;24.31;67.63;99174.59;5079729;28;20433;-83
2023/08/09 09:15:45;;;;;;;6.28;5.22;;;;;;;24.52;67.36;99169.03;5079951;28;20071;-84
2023/08/09 09:18:29;;;;;;;6.03;4.47;;;;;;;24.84;66.88;99175.69;5079647;28;20063;-84
2023/08/09 09:21:16;;;;;;;5.78;4.72;;;;;;;24.44;67.72;99191.13;5082574;28;20111;-83
2023/08/09 09:24:05;;;;;;;7.25;4.82;;;;;;;24.45;67.21;99188.13;5078130;28;20089;-84
2023/08/09 09:26:53;;;;;;;6.45;4.90;;;;;;;24.64;66.68;99174.00;5080373;28;20039;-85
2023/08/09 09:29:38;;;;;;;7.28;4.70;;;;;;;24.46;67.24;99192.41;5080677;28;20529;-83
2023/08/09 09:32:21;;;;;;;5.20;4.03;;;;;;;24.55;66.18;99194.50;5081591;28;20124;-83
2023/08/09 09:35:06;;;;;;;5.20;3.88;;;;;;;24.78;66.16;99198.31;5078129;28;20039;-85
2023/08/09 09:37:54;;;;;;;5.03;3.90;;;;;;;25.85;63.28;99193.72;5079377;28;20043;-84
2023/08/09 09:40:42;;;;;;;4.20;3.60;;;;;;;25.84;63.90;99200.19;5079888;28;20043;-84
2023/08/09 09:43:31;;;;;;;6.75;3.85;;;;;;;25.56;62.33;99200.09;5081017;28;20066;-85
2023/08/09 09:46:20;;;;;;;4.50;3.70;;;;;;;25.51;62.24;99192.88;5078253;28;20165;-84
2023/08/09 09:49:05;;;;;;;4.82;3.50;;;;;;;25.76;62.95;99194.41;5083671;28;20098;-82
2023/08/09 09:51:52;;;;;;;4.22;3.05;;;;;;;26.54;61.42;99187.78;5073617;28;20071;-84
2023/08/09 09:54:39;;;;;;;4.13;3.72;;;;;;;26.77;59.42;99188.66;5080916;28;20571;-85
2023/08/09 09:57:23;;;;;;;4.40;3.42;;;;;;;27.21;58.91;99202.63;5080987;28;20134;-85
2023/08/09 10:00:14;;;;;;;3.63;3.33;;;;;;;27.06;58.95;99197.56;5085230;28;20056;-81
2023/08/09 10:03:04;;;;;;;4.35;3.55;;;;;;;26.44;59.61;99212.16;5079093;28;20125;-80
2023/08/09 10:05:49;;;;;;;18.40;4.95;;;;;;;25.41;61.95;99209.91;5077855;28;20535;-81
2023/08/09 10:08:33;;;;;;;8.43;3.97;;;;;;;25.53;60.80;99221.03;5081107;28;20055;-80
2023/08/09 10:11:21;;;;;;;4.53;3.53;;;;;;;25.37;62.61;99220.44;5081752;28;20062;-80
2023/08/09 10:14:08;;;;;;;4.47;3.58;;;;;;;26.08;61.77;99233.16;5078146;28;20086;-79
2023/08/09 10:16:52;;;;;;;3.50;3.20;;;;;;;26.70;60.45;99230.53;5079753;28;20091;-82
2023/08/09 10:19:37;;;;;;;5.10;2.85;;;;;;;27.43;60.08;99236.13;5073797;28;20051;-82
2023/08/09 10:22:25;;;;;;;7.28;3.65;;;;;;;27.27;59.36;99240.25;5078567;28;20494;-83
2023/08/09 10:25:09;;;;;;;8.30;4.18;;;;;;;26.53;60.08;99240.00;5081454;28;20039;-83
2023/08/09 10:27:58;;;;;;;7.68;3.78;;;;;;;26.05;60.85;99236.44;5084137;28;20086;-83
2023/08/09 10:30:48;;;;;;;3.72;2.95;;;;;;;26.09;61.37;99240.13;5077924;28;20452;-83
2023/08/09 10:33:33;;;;;;;7.57;3.80;;;;;;;26.04;61.34;99252.84;5086423;28;20564;-83
2023/08/09 10:36:31;;;;;;;4.07;3.10;;;;;;;26.18;61.12;99242.97;5083079;28;20062;-86
2023/08/09 10:39:18;;;;;;;3.47;2.90;;;;;;;25.87;61.71;99248.00;5083166;28;20047;-84
2023/08/09 10:42:07;;;;;;;3.97;3.58;;;;;;;25.92;61.51;99242.56;5087546;28;20114;-84
2023/08/09 10:45:02;;;;;;;3.50;3.20;;;;;;;26.35;60.82;99245.16;5087358;28;20400;-84
2023/08/09 10:47:48;;;;;;;4.50;2.95;;;;;;;26.76;60.00;99242.81;5081652;28;20497;-80
2023/08/09 10:50:32;;;;;;;4.68;3.08;;;;;;;26.56;60.16;99239.41;5084975;28;20643;-85
2023/08/09 10:53:21;;;;;;;3.50;3.17;;;;;;;26.35;60.73;99245.16;5081836;28;20089;-83
2023/08/09 10:56:34;;;;;;;3.97;3.45;;;;;;;26.61;61.04;99238.50;5084762;28;20086;-83
2023/08/09 10:59:27;;;;;;;3.60;3.10;;;;;;;27.34;59.46;99246.81;5083575;28;20513;-82
2023/08/09 11:02:11;;;;;;;4.35;3.95;;;;;;;27.25;58.77;99245.13;5080913;28;20488;-82
2023/08/09 11:04:56;;;;;;;8.70;4.00;;;;;;;26.94;60.00;99243.84;5086361;28;20113;-79
2023/08/09 11:07:45;;;;;;;36.75;6.53;;;;;;;26.86;59.84;99247.25;5080704;28;20136;-80
2023/08/09 11:10:41;;;;;;;3.95;3.05;;;;;;;27.59;57.34;99249.31;5084550;28;20067;-83
2023/08/09 11:13:29;;;;;;;4.25;3.72;;;;;;;27.67;57.09;99248.56;5084786;28;20174;-86
2023/08/09 11:16:16;;;;;;;11.15;3.55;;;;;;;27.79;56.48;99238.06;5083114;28;20067;-85
2023/08/09 11:19:04;;;;;;;3.35;3.05;;;;;;;27.97;56.06;99249.00;5086426;28;20055;-86
2023/08/09 11:21:52;;;;;;;5.85;3.42;;;;;;;28.17;55.69;99253.13;5080401;28;20120;-86
2023/08/09 11:24:36;;;;;;;3.28;2.97;;;;;;;28.20;55.22;99255.22;5080622;28;20102;-87
2023/08/09 11:27:20;;;;;;;4.25;2.70;;;;;;;28.71;54.34;99248.81;5080650;28;20104;-87
2023/08/09 11:30:05;;;;;;;4.72;3.25;;;;;;;27.93;55.01;99256.09;5082614;28;20047;-87
2023/08/09 11:33:04;;;;;;;3.10;2.75;;;;;;;27.72;55.18;99259.28;5087034;28;20504;-87
2023/08/09 11:35:49;;;;;;;8.50;3.67;;;;;;;28.42;55.76;99259.00;5081506;28;20051;-88
2023/08/09 11:38:33;;;;;;;9.60;3.47;;;;;;;29.20;53.27;99265.06;5078804;28;20402;-86
2023/08/09 11:41:16;;;;;;;4.55;3.25;;;;;;;29.66;52.37;99262.94;5081329;28;20162;-86
2023/08/09 11:44:04;;;;;;;4.15;3.13;;;;;;;30.59;52.30;99267.31;5079510;28;20124;-87
2023/08/09 11:46:51;;;;;;;3.30;2.97;;;;;;;30.92;51.29;99256.69;5080715;28;20402;-87
2023/08/09 11:49:35;;;;;;;3.58;2.63;;;;;;;30.26;50.43;99260.53;5082976;28;20089;-86
2023/08/09 11:52:19;;;;;;;3.60;3.05;;;;;;;30.12;50.37;99260.72;5085955;28;20504;-86
2023/08/09 11:55:06;;;;;;;3.90;2.63;;;;;;;30.14;51.58;99263.13;5086007;28;20042;-86
2023/08/09 11:57:50;;;;;;;4.15;3.35;;;;;;;29.38;51.78;99260.50;5077629;28;20062;-87
2023/08/09 12:00:34;;;;;;;3.55;3.25;;;;;;;29.13;52.03;99259.31;5082850;28;20102;-85
2023/08/09 12:03:20;;;;;;;3.72;3.33;;;;;;;29.05;52.41;99247.38;5081934;28;20567;-84
2023/08/09 12:06:05;;;;;;;2.90;2.70;;;;;;;29.06;53.24;99246.25;5089844;28;20047;-84
2023/08/09 12:08:49;;;;;;;3.42;3.13;;;;;;;28.28;53.66;99255.56;5083041;28;20079;-83
2023/08/09 12:11:33;;;;;;;3.63;2.95;;;;;;;28.53;52.99;99254.13;5089471;28;20050;-84
2023/08/09 12:14:17;;;;;;;3.78;3.15;;;;;;;28.63;53.39;99259.25;5081754;28;20051;-87
2023/08/09 12:17:02;;;;;;;4.63;3.15;;;;;;;28.72;53.77;99255.81;5085588;28;20047;-86
2023/08/09 12:19:50;;;;;;;3.65;3.35;;;;;;;29.34;52.80;99246.03;5080238;28;20097;-89
2023/08/09 12:22:34;;;;;;;3.60;3.30;;;;;;;29.38;52.10;99263.19;5075524;28;20125;-84
2023/08/09 12:25:18;;;;;;;5.60;3.40;;;;;;;29.40;52.26;99260.97;5084606;28;20179;-83
2023/08/09 12:28:03;;;;;;;3.72;3.42;;;;;;;29.73;52.29;99254.34;5077181;28;20074;-82
2023/08/09 12:30:48;;;;;;;3.00;2.80;;;;;;;29.50;51.41;99251.78;5082724;28;20067;-88
2023/08/09 12:33:32;;;;;;;5.35;4.00;;;;;;;30.07;51.79;99247.38;5082845;28;20039;-84
2023/08/09 12:36:16;;;;;;;4.78;3.50;;;;;;;29.78;51.93;99263.09;5085141;28;20048;-85
2023/08/09 12:39:00;;;;;;;3.78;3.28;;;;;;;30.05;51.39;99257.72;5082940;28;20097;-84
2023/08/09 12:41:45;;;;;;;3.80;3.50;;;;;;;30.52;51.08;99261.59;5086226;28;20051;-84
2023/08/09 12:44:29;;;;;;;3.60;3.30;;;;;;;30.90;49.62;99256.22;5086723;28;20402;-86
2023/08/09 12:47:13;;;;;;;3.58;3.17;;;;;;;31.27;49.42;99258.44;5080421;28;20125;-84
2023/08/09 12:49:57;;;;;;;3.50;3.20;;;;;;;31.12;49.96;99248.94;5081905;28;20046;-83
2023/08/09 12:52:42;;;;;;;4.60;3.10;;;;;;;31.75;48.34;99252.84;5081106;28;20055;-83
2023/08/09 12:55:26;;;;;;;3.70;3.25;;;;;;;30.75;49.53;99262.97;5082707;28;20109;-85
2023/08/09 12:58:10;;;;;;;3.42;3.13;;;;;;;31.19;49.75;99279.03;5078840;28;20112;-84